Curtis, Texas
Current Conditions -  °F | °C
As of 4:15 AM on Thursday 23 Oct 2014 (Local Time) from KJAS Reporting Station
Clear Clear  
Wind Chill: 56°   Ceiling: Unl
Heat Index: 56°   Visibility: 10mi
Dew Point: 50°   Wind: 3mph
Humidity: 79%   Direction: 60°ENE
Pressure: 30.12"   Gusts: NA
Location:  30.9529°N, 94.0707°W
Report Text: KJAS 230915Z AUTO 06003KT 10SM CLR 14/10 A3012 RMK AO2 T01350100
Loading
Personal Weather Stations






























Interactive Weather Map
Tropical Storm Tracking
New forecast layout! Learn more

10-Day Weather Forecast

Advertisements
Track Severe Weather on mobile